Ralston, Pennsylvania
Current Conditions -  °F | °C
As of 8:54 AM on Friday 24 Oct 2014 (Local Time) from KIPT Reporting Station
Scattered Clouds Scattered Clouds  
Wind Chill: 54°   Ceiling: Unl
Heat Index: 54°   Visibility: 10mi
Dew Point: 41°   Wind: 13mph
Humidity: 62%   Direction: 260°W
Pressure: 29.94"   Gusts: NA
Location:  41.51°N, 76.95°W
Report Text: KIPT 241254Z 26011KT 10SM SCT039 12/05 A2994 RMK AO2 SLP139 T01220050
Loading
Personal Weather Stations






























Interactive Weather Map
Tropical Storm Tracking
New forecast layout! Learn more

10-Day Weather Forecast

Advertisements
Track Severe Weather on mobile